Terminal Aerodrome Forecast
Issued by NWS Caribou, ME

Home | Current Version | Previous Version | Text Only | Print | Product List | Glossary On
Versions: 1 2 3 4 5 6 7 8 9 10 11 12 13 14 15 16
796
FTUS41 KCAR 290539
TAFBGR
TAF
KBGR 290539Z 2906/3006 16004KT P6SM BKN008
     FM291500 15007KT P6SM SCT015
     FM291900 15009KT P6SM BKN015
     FM300200 14004KT 3SM -SHRA OVC008=

USA.gov is the U.S. government's official web portal to all federal, state and local government web resources and services.